EDVK/KSF METAR and TAF weather

Enter ICAO airport designator
Station Type Date Time Source
EDVK METAR 2022/11/30 10:20 UTC NOAA

EDVK 301020Z 29004KT 2500 0800W R27/P2000N PRFG SCT001 OVC003 06/06 Q1022


Station Type Date Time Source
EDVK Decoded METAR 2022/11/30 10:20 UTC NOAA

Kassel / Calden, Germany (EDVK) 51-24N 009-23E 283M
Nov 30, 2022 - 05:20 AM EST / 2022.11.30 1020 UTC
Wind: from the WNW (290 degrees) at 5 MPH (4 KT):0
Visibility: 1 mile(s):0
Sky conditions: overcast
Weather: partial fog
Temperature: 42 F (6 C)
Dew Point: 42 F (6 C)
Relative Humidity: 100%
Pressure (altimeter): 30.18 in. Hg (1022 hPa)
ob: EDVK 301020Z 29004KT 2500 0800W R27/P2000N PRFG SCT001 OVC003 06/06 Q1022
cycle: 10

Station Type Date Time Source
EDVK TAF 2011/03/23 07:09 UTC NOAA

TAF COR EDVK 230655Z 2307/2321 30002KT 3500 BR SCT025 PROB30
TEMPO 2307/2309 1400 BCFG
BECMG 2307/2310 01007KT 8000

Example: see airport list